Terminal Aerodrome Forecast
Issued by NWS

Home | Current Version | Previous Version | Text Only | Print | Product List | Glossary On
Versions: 1 2 3 4 5 6 7 8 9 10 11 12 13 14 15 16 17
000
FTUS46 KSTO 242335
TAFRBL
TAF
KRBL 242335Z 2500/2524 15013KT P6SM VCSH BKN015 OVC025
      TEMPO 2500/2504 5SM -SHRA SCT015 OVC025
     FM250500 VRB05KT P6SM OVC015
     FM251900 VRB04KT P6SM SCT025 BKN060=

USA.gov is the U.S. government's official web portal to all federal, state and local government web resources and services.